createdAt,value
2023-05-04T00:01:28.815Z,3.20
2023-05-04T00:03:56.243Z,3.50
2023-05-04T00:06:23.252Z,3.80
2023-05-04T00:08:50.118Z,3.10
2023-05-04T00:11:17.532Z,3.00
2023-05-04T00:13:44.877Z,2.70
2023-05-04T00:16:12.445Z,3.30
2023-05-04T00:18:39.396Z,3.00
2023-05-04T00:21:06.395Z,3.60
2023-05-04T00:23:33.254Z,3.10
2023-05-04T00:26:00.318Z,3.20
2023-05-04T00:28:27.254Z,3.90
2023-05-04T00:30:54.441Z,2.90
2023-05-04T00:33:21.781Z,3.20
2023-05-04T00:35:48.670Z,2.90
2023-05-04T00:38:16.892Z,3.60
2023-05-04T00:40:43.682Z,3.10
2023-05-04T00:43:11.824Z,4.40
2023-05-04T00:45:38.756Z,4.00
2023-05-04T00:48:06.456Z,3.70
2023-05-04T00:50:33.879Z,3.60
2023-05-04T00:53:03.897Z,3.00
2023-05-04T00:55:31.009Z,3.30
2023-05-04T00:57:57.818Z,3.40
2023-05-04T01:00:24.696Z,4.20
2023-05-04T01:02:51.712Z,4.10
2023-05-04T01:05:18.847Z,4.20
2023-05-04T01:08:06.563Z,4.20
2023-05-04T01:10:39.923Z,4.00
2023-05-04T01:13:12.665Z,4.00
2023-05-04T01:15:40.938Z,3.90
2023-05-04T01:18:08.008Z,3.80
2023-05-04T01:20:35.475Z,4.30
2023-05-04T01:23:02.472Z,3.50
2023-05-04T01:25:43.601Z,4.20
2023-05-04T01:28:12.931Z,3.90
2023-05-04T01:30:42.315Z,3.50
2023-05-04T01:33:09.379Z,3.00
2023-05-04T01:35:37.065Z,3.50
2023-05-04T01:38:04.156Z,3.40
2023-05-04T01:40:31.058Z,4.00
2023-05-04T01:42:57.904Z,3.10
2023-05-04T01:45:24.756Z,4.00
2023-05-04T01:47:51.582Z,3.80
2023-05-04T01:50:18.504Z,3.20
2023-05-04T01:52:46.145Z,3.50
2023-05-04T01:55:12.943Z,3.60
2023-05-04T01:57:39.814Z,4.00
2023-05-04T02:00:08.361Z,4.10
2023-05-04T02:02:44.868Z,3.10
2023-05-04T02:05:14.929Z,3.70
2023-05-04T02:07:41.766Z,4.10
2023-05-04T02:10:09.344Z,3.70
2023-05-04T02:12:36.390Z,4.50
2023-05-04T02:15:03.677Z,4.00
2023-05-04T02:17:31.167Z,3.50
2023-05-04T02:19:57.993Z,4.50
2023-05-04T02:22:24.817Z,4.40
2023-05-04T02:24:52.898Z,4.70
2023-05-04T02:27:20.676Z,4.70
2023-05-04T02:29:48.608Z,4.70
2023-05-04T02:32:15.592Z,5.10
2023-05-04T02:34:42.470Z,5.10
2023-05-04T02:37:09.362Z,4.80
2023-05-04T02:39:36.698Z,4.70
2023-05-04T02:42:03.633Z,5.10
2023-05-04T02:44:30.546Z,4.80
2023-05-04T02:46:57.497Z,4.80
2023-05-04T02:49:24.545Z,5.00
2023-05-04T02:51:51.538Z,4.70
2023-05-04T02:54:18.447Z,5.10
2023-05-04T02:56:45.360Z,6.00
2023-05-04T02:59:12.320Z,5.00
2023-05-04T03:01:39.144Z,5.00
2023-05-04T03:04:07.076Z,5.30
2023-05-04T03:06:34.029Z,4.80
2023-05-04T03:09:00.952Z,5.80
2023-05-04T03:11:27.799Z,4.90
2023-05-04T03:13:54.795Z,5.30
2023-05-04T03:16:21.815Z,5.50
2023-05-04T03:21:35.374Z,6.30
2023-05-04T03:24:02.259Z,6.60
2023-05-04T03:26:29.095Z,5.40
2023-05-04T03:28:56.012Z,6.00
2023-05-04T03:31:23.301Z,5.40
2023-05-04T03:33:51.758Z,5.70
2023-05-04T03:36:19.002Z,6.00
2023-05-04T03:38:45.905Z,6.20
2023-05-04T03:41:13.499Z,6.10
2023-05-04T03:43:40.402Z,6.10
2023-05-04T03:46:07.703Z,6.10
2023-05-04T03:48:34.559Z,7.00
2023-05-04T03:51:01.998Z,7.20
2023-05-04T03:53:28.866Z,6.60
2023-05-04T03:55:56.413Z,6.80
2023-05-04T03:58:23.255Z,6.70
2023-05-04T04:00:50.172Z,6.70
2023-05-04T04:03:17.522Z,6.50
2023-05-04T04:05:44.683Z,8.00
2023-05-04T04:08:14.400Z,6.20
2023-05-04T04:10:42.082Z,7.10
2023-05-04T04:13:08.991Z,7.20
2023-05-04T04:15:36.057Z,7.30
2023-05-04T04:18:02.980Z,7.20
2023-05-04T04:20:29.851Z,7.10
2023-05-04T04:22:56.683Z,7.80
2023-05-04T04:25:24.354Z,8.10
2023-05-04T04:27:51.406Z,8.10
2023-05-04T04:30:18.451Z,7.30
2023-05-04T04:32:45.903Z,7.20
2023-05-04T04:35:14.332Z,8.00
2023-05-04T04:37:41.289Z,8.00
2023-05-04T04:40:09.202Z,7.10
2023-05-04T04:42:35.978Z,7.80
2023-05-04T04:45:05.645Z,7.10
2023-05-04T04:47:32.965Z,7.80
2023-05-04T04:49:59.900Z,7.50
2023-05-04T04:52:26.940Z,8.00
2023-05-04T04:54:53.891Z,7.60
2023-05-04T04:57:21.126Z,7.20
2023-05-04T04:59:47.933Z,7.90
2023-05-04T05:02:14.983Z,7.70
2023-05-04T05:04:41.954Z,7.40
2023-05-04T05:07:09.115Z,7.70
2023-05-04T05:09:36.078Z,7.60
2023-05-04T05:12:04.312Z,7.70
2023-05-04T05:14:35.718Z,7.40
2023-05-04T05:17:05.679Z,7.60
2023-05-04T05:19:37.265Z,7.80
2023-05-04T05:22:04.772Z,6.80
2023-05-04T05:24:31.916Z,7.30
2023-05-04T05:26:59.089Z,7.10
2023-05-04T05:29:26.286Z,7.70
2023-05-04T05:31:53.203Z,7.60
2023-05-04T05:34:20.097Z,7.20
2023-05-04T05:36:48.471Z,7.70
2023-05-04T05:39:16.086Z,7.00
2023-05-04T05:41:43.530Z,7.00
2023-05-04T05:44:11.713Z,6.70
2023-05-04T05:46:40.014Z,6.40
2023-05-04T05:49:07.522Z,7.20
2023-05-04T05:51:34.502Z,6.90
2023-05-04T05:54:01.816Z,6.80
2023-05-04T05:56:28.692Z,7.70
2023-05-04T05:58:55.916Z,7.20
2023-05-04T06:01:22.940Z,7.40
2023-05-04T06:03:49.837Z,7.10
2023-05-04T06:06:17.451Z,7.80
2023-05-04T06:08:44.312Z,7.20
2023-05-04T06:11:11.926Z,7.30
2023-05-04T06:13:39.497Z,6.50
2023-05-04T06:16:06.332Z,6.90
2023-05-04T06:18:33.209Z,6.80
2023-05-04T06:21:00.784Z,7.20
2023-05-04T06:23:28.778Z,8.00
2023-05-04T06:25:55.752Z,8.00
2023-05-04T06:28:22.779Z,7.80
2023-05-04T06:30:49.721Z,7.50
2023-05-04T06:33:16.572Z,7.80
2023-05-04T06:35:43.433Z,8.30
2023-05-04T06:38:10.308Z,8.50
2023-05-04T06:40:37.314Z,7.60
2023-05-04T06:44:12.644Z,8.00
2023-05-04T06:46:39.448Z,8.10
2023-05-04T06:49:07.266Z,8.00
2023-05-04T06:51:36.947Z,8.00
2023-05-04T06:54:03.630Z,8.40
2023-05-04T06:56:30.803Z,8.30
2023-05-04T06:58:57.621Z,8.90
2023-05-04T07:01:24.308Z,7.60
2023-05-04T07:03:51.151Z,8.20
2023-05-04T07:06:17.975Z,8.40
2023-05-04T07:08:44.651Z,8.70
2023-05-04T07:11:11.275Z,8.50
2023-05-04T07:13:38.060Z,8.80
2023-05-04T07:16:08.651Z,8.60
2023-05-04T07:18:35.768Z,8.40
2023-05-04T07:21:22.024Z,7.40
2023-05-04T07:23:51.386Z,7.10
2023-05-04T07:26:18.042Z,8.20
2023-05-04T07:28:44.620Z,7.30
2023-05-04T07:31:12.385Z,7.70
2023-05-04T07:33:39.724Z,8.30
2023-05-04T07:36:06.456Z,8.00
2023-05-04T07:38:33.149Z,7.80
2023-05-04T07:40:59.768Z,7.80
2023-05-04T07:43:26.601Z,8.30
2023-05-04T07:45:53.465Z,7.60
2023-05-04T07:48:20.694Z,7.70
2023-05-04T07:50:48.073Z,7.50
2023-05-04T07:53:14.931Z,7.60
2023-05-04T07:55:41.634Z,7.80
2023-05-04T07:58:09.515Z,8.10
2023-05-04T08:00:36.331Z,7.60
2023-05-04T08:03:03.718Z,7.90
2023-05-04T08:05:31.003Z,7.40
2023-05-04T08:07:57.693Z,7.50
2023-05-04T08:10:25.428Z,8.10
2023-05-04T08:12:52.211Z,8.80
2023-05-04T08:15:18.774Z,8.40
2023-05-04T08:17:45.652Z,8.00
2023-05-04T08:20:12.353Z,7.90
2023-05-04T08:22:39.285Z,8.40
2023-05-04T08:25:06.822Z,8.50
2023-05-04T08:27:34.229Z,8.40
2023-05-04T08:30:00.738Z,7.60
2023-05-04T08:32:27.440Z,7.30
2023-05-04T08:34:54.113Z,7.00
2023-05-04T08:37:20.834Z,7.00
2023-05-04T08:39:47.716Z,7.70
2023-05-04T08:42:14.355Z,7.80
2023-05-04T08:44:42.079Z,7.00
2023-05-04T08:47:10.638Z,7.00
2023-05-04T08:49:37.257Z,6.90
2023-05-04T08:52:05.628Z,6.30
2023-05-04T08:54:32.692Z,6.90
2023-05-04T08:56:59.454Z,7.50
2023-05-04T08:59:26.173Z,6.90
2023-05-04T09:01:56.067Z,6.20
2023-05-04T09:04:23.027Z,7.20
2023-05-04T09:06:50.303Z,6.10
2023-05-04T09:09:17.013Z,6.80
2023-05-04T09:11:43.906Z,6.10
2023-05-04T09:14:10.769Z,6.40
2023-05-04T09:16:37.822Z,5.40
2023-05-04T09:19:04.838Z,6.20
2023-05-04T09:21:31.533Z,6.30
2023-05-04T09:23:58.673Z,6.30
2023-05-04T09:26:29.662Z,5.90
2023-05-04T09:28:56.861Z,6.30
2023-05-04T09:31:24.473Z,6.70
2023-05-04T09:33:53.384Z,6.50
2023-05-04T09:36:21.395Z,6.40
2023-05-04T09:38:48.259Z,6.40
2023-05-04T09:41:14.899Z,6.10
2023-05-04T09:43:43.193Z,6.20
2023-05-04T09:46:17.663Z,6.50
2023-05-04T09:48:51.749Z,5.90
2023-05-04T09:51:20.999Z,7.10
2023-05-04T09:53:48.588Z,7.00
2023-05-04T09:56:47.131Z,6.70
2023-05-04T09:59:14.032Z,6.10
2023-05-04T10:01:42.770Z,8.00
2023-05-04T10:04:11.246Z,6.70
2023-05-04T10:06:38.182Z,5.90
2023-05-04T10:09:06.452Z,6.30
2023-05-04T10:11:33.121Z,6.60
2023-05-04T10:14:00.388Z,6.00
2023-05-04T10:16:32.206Z,5.60
2023-05-04T10:19:22.110Z,5.90
2023-05-04T10:22:07.402Z,5.90
2023-05-04T10:25:02.535Z,6.20
2023-05-04T10:27:47.798Z,6.20
2023-05-04T10:30:15.384Z,5.60
2023-05-04T10:32:42.565Z,6.60
2023-05-04T10:35:09.609Z,7.00
2023-05-04T10:37:37.138Z,6.20
2023-05-04T10:40:08.178Z,5.70
2023-05-04T10:42:44.808Z,5.50
2023-05-04T10:45:12.461Z,6.50
2023-05-04T10:47:39.997Z,6.40
2023-05-04T10:50:11.729Z,6.10
2023-05-04T10:52:46.630Z,6.80
2023-05-04T10:55:13.645Z,6.30
2023-05-04T10:57:48.966Z,6.10
2023-05-04T11:00:16.004Z,6.90
2023-05-04T11:02:42.878Z,6.20
2023-05-04T11:05:15.337Z,6.90
2023-05-04T11:07:42.276Z,6.60
2023-05-04T11:10:20.523Z,6.40
2023-05-04T11:12:47.307Z,6.10
2023-05-04T11:15:14.128Z,5.60
2023-05-04T11:17:47.697Z,5.10
2023-05-04T11:20:25.023Z,5.50
2023-05-04T11:22:52.526Z,5.40
2023-05-04T11:25:28.928Z,5.20
2023-05-04T11:27:57.577Z,5.70
2023-05-04T11:30:32.616Z,4.60
2023-05-04T11:33:02.550Z,5.10
2023-05-04T11:35:29.381Z,4.60
2023-05-04T11:37:56.049Z,4.90
2023-05-04T11:40:23.737Z,4.90
2023-05-04T11:42:51.172Z,4.70
2023-05-04T11:45:22.492Z,5.10
2023-05-04T11:47:50.171Z,4.70
2023-05-04T11:50:18.357Z,5.50
2023-05-04T11:52:45.293Z,5.30
2023-05-04T11:55:32.889Z,4.70
2023-05-04T11:58:09.608Z,4.90
2023-05-04T12:00:41.055Z,5.50
2023-05-04T12:03:09.011Z,5.00
2023-05-04T12:05:36.795Z,5.20
2023-05-04T12:08:06.648Z,4.70
2023-05-04T12:10:35.120Z,4.90
2023-05-04T12:13:01.994Z,5.60
2023-05-04T12:15:36.096Z,5.80
2023-05-04T12:18:03.374Z,5.90
2023-05-04T12:20:31.175Z,5.80
2023-05-04T12:22:58.145Z,5.80
2023-05-04T12:25:25.118Z,6.10
2023-05-04T12:27:52.345Z,5.80
2023-05-04T12:30:30.320Z,6.10
2023-05-04T12:32:57.981Z,6.30
2023-05-04T12:35:25.494Z,6.10
2023-05-04T12:37:52.426Z,6.10
2023-05-04T12:40:28.406Z,5.30
2023-05-04T12:42:55.585Z,5.90
2023-05-04T12:45:22.253Z,5.20
2023-05-04T12:47:48.917Z,6.40
2023-05-04T12:50:15.708Z,6.30
2023-05-04T12:52:42.418Z,6.60
2023-05-04T12:55:09.170Z,5.30
2023-05-04T12:57:35.849Z,5.00
2023-05-04T13:00:06.449Z,5.30
2023-05-04T13:02:33.923Z,5.60
2023-05-04T13:05:00.567Z,4.80
2023-05-04T13:07:27.305Z,5.80
2023-05-04T13:09:53.926Z,5.90
2023-05-04T13:12:20.785Z,5.80
2023-05-04T13:14:47.396Z,6.00
2023-05-04T13:17:14.553Z,5.80
2023-05-04T13:19:41.273Z,5.30
2023-05-04T13:22:08.625Z,6.00
2023-05-04T13:24:36.004Z,5.40
2023-05-04T13:27:02.707Z,5.00
2023-05-04T13:29:29.795Z,5.40
2023-05-04T13:31:58.553Z,5.20
2023-05-04T13:34:25.319Z,5.60
2023-05-04T13:36:51.890Z,5.60
2023-05-04T13:39:21.174Z,5.60
2023-05-04T13:41:48.439Z,4.90
2023-05-04T13:44:15.065Z,5.10
2023-05-04T13:46:41.781Z,5.00
2023-05-04T13:49:09.101Z,4.90
2023-05-04T13:51:39.550Z,4.60
2023-05-04T13:54:06.216Z,5.10
2023-05-04T13:56:32.910Z,5.10
2023-05-04T13:58:59.673Z,5.00
2023-05-04T14:01:26.399Z,4.40
2023-05-04T14:03:54.129Z,4.70
2023-05-04T14:06:21.400Z,5.10
2023-05-04T14:08:49.369Z,4.90
2023-05-04T14:11:16.010Z,4.70
2023-05-04T14:13:42.977Z,4.40
2023-05-04T14:16:09.788Z,4.30
2023-05-04T14:18:37.276Z,3.80
2023-05-04T14:21:03.968Z,4.60
2023-05-04T14:23:30.933Z,4.70
2023-05-04T14:25:57.574Z,4.80
2023-05-04T14:28:24.465Z,4.70
2023-05-04T14:30:51.172Z,4.40
2023-05-04T14:33:18.063Z,4.60
2023-05-04T14:35:48.011Z,4.60
2023-05-04T14:38:15.058Z,4.70
2023-05-04T14:40:41.749Z,4.20
2023-05-04T14:43:08.451Z,5.60
2023-05-04T14:45:35.398Z,4.80
2023-05-04T14:48:02.116Z,4.10
2023-05-04T14:50:29.575Z,4.20
2023-05-04T14:52:56.518Z,4.30
2023-05-04T14:55:23.568Z,4.40
2023-05-04T14:57:50.433Z,3.90
2023-05-04T15:00:19.147Z,4.30
2023-05-04T15:02:45.855Z,4.50
2023-05-04T15:05:12.774Z,3.70
2023-05-04T15:07:39.871Z,3.60
2023-05-04T15:10:08.340Z,3.60
2023-05-04T15:12:36.973Z,3.60
2023-05-04T15:15:05.198Z,3.20
2023-05-04T15:17:32.610Z,3.50
2023-05-04T15:20:01.636Z,3.80
2023-05-04T15:22:28.777Z,3.50
2023-05-04T15:24:56.074Z,3.90
2023-05-04T15:27:22.684Z,3.40
2023-05-04T15:29:49.328Z,3.40
2023-05-04T15:32:15.868Z,3.80
2023-05-04T15:34:48.098Z,3.50
2023-05-04T15:37:20.704Z,3.60
2023-05-04T15:39:47.447Z,4.10
2023-05-04T15:42:14.030Z,3.70
2023-05-04T15:44:40.739Z,3.40
2023-05-04T15:47:10.588Z,3.60
2023-05-04T15:49:38.562Z,3.50
2023-05-04T15:52:05.322Z,3.60
2023-05-04T15:54:32.187Z,3.70
2023-05-04T15:56:59.512Z,3.00
2023-05-04T15:59:26.414Z,3.10
2023-05-04T16:01:53.259Z,3.10
2023-05-04T16:04:20.199Z,3.20
2023-05-04T16:06:47.154Z,3.30
2023-05-04T16:09:17.547Z,3.30
2023-05-04T16:11:45.230Z,2.80
2023-05-04T16:14:12.022Z,2.70
2023-05-04T16:16:38.802Z,2.60
2023-05-04T16:19:05.505Z,3.00
2023-05-04T16:21:32.814Z,2.70
2023-05-04T16:23:59.392Z,2.60
2023-05-04T16:26:25.965Z,2.60
2023-05-04T16:28:52.592Z,2.80
2023-05-04T16:31:19.159Z,2.40
2023-05-04T16:33:47.332Z,2.30
2023-05-04T16:36:14.149Z,3.00
2023-05-04T16:38:40.859Z,2.70
2023-05-04T16:41:07.624Z,2.90
2023-05-04T16:43:34.217Z,2.80
2023-05-04T16:46:01.001Z,2.10
2023-05-04T16:48:28.135Z,2.50
2023-05-04T16:50:54.717Z,2.60
2023-05-04T16:53:21.767Z,2.50
2023-05-04T16:55:50.301Z,2.60
2023-05-04T16:58:17.627Z,2.90
2023-05-04T17:00:44.470Z,2.90
2023-05-04T17:03:11.611Z,2.80
2023-05-04T17:05:38.372Z,2.60
2023-05-04T17:08:05.193Z,2.60
2023-05-04T17:10:32.609Z,3.00
2023-05-04T17:13:00.922Z,2.80
2023-05-04T17:15:29.296Z,3.00
2023-05-04T17:17:56.084Z,2.40
2023-05-04T17:20:28.032Z,2.30
2023-05-04T17:22:57.973Z,3.00
2023-05-04T17:25:26.166Z,2.60
2023-05-04T17:27:53.520Z,3.30
2023-05-04T17:30:20.153Z,2.80
2023-05-04T17:32:48.125Z,2.70
2023-05-04T17:35:24.152Z,2.60
2023-05-04T17:37:58.534Z,3.10
2023-05-04T17:40:26.790Z,2.80
2023-05-04T17:42:53.728Z,2.70
2023-05-04T17:45:21.035Z,2.50
2023-05-04T17:47:50.290Z,2.60
2023-05-04T17:50:16.981Z,2.20
2023-05-04T17:52:43.762Z,2.90
2023-05-04T17:55:10.425Z,2.40
2023-05-04T17:57:37.050Z,2.70
2023-05-04T18:00:06.696Z,2.60
2023-05-04T18:02:33.753Z,2.60
2023-05-04T18:05:00.493Z,2.90
2023-05-04T18:07:27.150Z,2.60
2023-05-04T18:09:55.581Z,3.60
2023-05-04T18:12:22.402Z,3.00
2023-05-04T18:14:50.534Z,3.10
2023-05-04T18:17:17.325Z,2.40
2023-05-04T18:19:44.306Z,3.20
2023-05-04T18:22:10.977Z,2.80
2023-05-04T18:24:38.468Z,2.50
2023-05-04T18:27:05.494Z,2.80
2023-05-04T18:29:32.111Z,2.70
2023-05-04T18:32:00.569Z,2.90
2023-05-04T18:34:27.233Z,2.80
2023-05-04T18:36:56.906Z,2.80
2023-05-04T18:39:23.544Z,2.50
2023-05-04T18:41:50.119Z,2.70
2023-05-04T18:44:16.830Z,2.70
2023-05-04T18:46:43.518Z,2.50
2023-05-04T18:49:10.139Z,2.90
2023-05-04T18:51:40.977Z,2.50
2023-05-04T18:54:08.900Z,2.30
2023-05-04T18:56:35.941Z,2.90
2023-05-04T19:01:29.779Z,2.70
2023-05-04T19:03:57.003Z,2.70
2023-05-04T19:06:23.928Z,3.00
2023-05-04T19:08:50.903Z,3.10
2023-05-04T19:11:17.750Z,2.90
2023-05-04T19:13:44.539Z,3.00
2023-05-04T19:16:12.051Z,3.00
2023-05-04T19:18:38.906Z,2.60
2023-05-04T19:21:06.223Z,2.90
2023-05-04T19:23:33.011Z,3.60
2023-05-04T19:25:59.855Z,3.20
2023-05-04T19:28:26.659Z,3.10
2023-05-04T19:30:54.216Z,2.50
2023-05-04T19:33:21.710Z,2.80
2023-05-04T19:35:49.094Z,2.50
2023-05-04T19:38:17.658Z,2.80
2023-05-04T19:40:44.460Z,2.30
2023-05-04T19:43:11.236Z,2.30
2023-05-04T19:45:39.223Z,2.80
2023-05-04T19:48:06.199Z,3.50
2023-05-04T19:50:33.226Z,2.60
2023-05-04T19:53:00.085Z,2.50
2023-05-04T19:55:27.936Z,2.80
2023-05-04T19:57:55.371Z,2.20
2023-05-04T20:00:23.176Z,2.00
2023-05-04T20:02:50.378Z,2.70
2023-05-04T20:05:17.889Z,2.30
2023-05-04T20:07:44.884Z,2.10
2023-05-04T20:10:12.219Z,2.40
2023-05-04T20:12:39.212Z,2.40
2023-05-04T20:15:06.804Z,2.60
2023-05-04T20:17:33.770Z,2.30
2023-05-04T20:20:02.550Z,2.30
2023-05-04T20:22:30.573Z,2.30
2023-05-04T20:24:57.485Z,2.40
2023-05-04T20:27:25.269Z,2.30
2023-05-04T20:29:53.666Z,2.70
2023-05-04T20:32:20.776Z,2.50
2023-05-04T20:34:47.916Z,2.20
2023-05-04T20:37:15.020Z,2.30
2023-05-04T20:39:41.916Z,2.30
2023-05-04T20:42:08.736Z,2.20
2023-05-04T20:44:35.966Z,2.10
2023-05-04T20:47:02.764Z,2.10
2023-05-04T20:49:29.820Z,2.20
2023-05-04T20:51:57.154Z,2.40
2023-05-04T20:54:24.282Z,2.50
2023-05-04T20:56:51.172Z,2.20
2023-05-04T20:59:17.975Z,2.10
2023-05-04T21:01:44.790Z,1.90
2023-05-04T21:04:11.733Z,2.70
2023-05-04T21:06:38.641Z,2.40
2023-05-04T21:09:05.726Z,2.50
2023-05-04T21:11:32.536Z,2.10
2023-05-04T21:13:59.372Z,2.20
2023-05-04T21:16:26.255Z,2.30
2023-05-04T21:18:53.034Z,2.40
2023-05-04T21:21:19.878Z,2.10
2023-05-04T21:23:46.719Z,2.20
2023-05-04T21:26:13.747Z,2.10
2023-05-04T21:28:40.727Z,1.80
2023-05-04T21:31:08.282Z,2.30
2023-05-04T21:33:36.134Z,2.20
2023-05-04T21:36:22.064Z,2.40
2023-05-04T21:38:48.830Z,3.10
2023-05-04T21:41:16.323Z,2.10
2023-05-04T21:43:43.346Z,2.10
2023-05-04T21:46:12.121Z,2.30
2023-05-04T21:48:39.195Z,2.30
2023-05-04T21:51:06.062Z,2.10
2023-05-04T21:53:35.694Z,2.40
2023-05-04T21:56:06.905Z,2.40
2023-05-04T21:58:34.054Z,2.20
2023-05-04T22:01:00.852Z,2.10
2023-05-04T22:03:29.756Z,2.20
2023-05-04T22:05:57.831Z,2.20
2023-05-04T22:08:28.161Z,2.10
2023-05-04T22:10:58.718Z,2.20
2023-05-04T22:13:26.177Z,1.80
2023-05-04T22:15:53.631Z,2.20
2023-05-04T22:18:20.910Z,2.50
2023-05-04T22:20:47.820Z,2.20
2023-05-04T22:23:14.782Z,2.60
2023-05-04T22:25:41.700Z,2.90
2023-05-04T22:28:08.504Z,2.80
2023-05-04T22:30:35.356Z,2.80
2023-05-04T22:33:02.191Z,2.80
2023-05-04T22:35:31.351Z,2.60
2023-05-04T22:37:58.344Z,2.70
2023-05-04T22:40:25.162Z,2.70
2023-05-04T22:42:52.087Z,2.70
2023-05-04T22:45:18.881Z,2.30
2023-05-04T22:47:47.055Z,2.60
2023-05-04T22:50:14.251Z,2.10
2023-05-04T22:52:41.400Z,2.20
2023-05-04T22:55:09.001Z,2.30
2023-05-04T22:57:36.236Z,2.40
2023-05-04T23:00:05.566Z,2.60
2023-05-04T23:02:32.755Z,2.10
2023-05-04T23:05:00.706Z,2.10
2023-05-04T23:07:27.533Z,2.90
2023-05-04T23:09:54.370Z,2.10
2023-05-04T23:12:21.331Z,2.30
2023-05-04T23:14:52.437Z,2.40
2023-05-04T23:17:19.437Z,2.60
2023-05-04T23:19:46.235Z,2.20
2023-05-04T23:22:13.727Z,2.60
2023-05-04T23:24:40.626Z,2.60
2023-05-04T23:27:07.446Z,2.10
2023-05-04T23:29:34.259Z,2.10
2023-05-04T23:32:01.303Z,2.60
2023-05-04T23:34:28.320Z,2.60
2023-05-04T23:36:55.186Z,2.10
2023-05-04T23:39:22.108Z,2.50
2023-05-04T23:41:49.059Z,2.20
2023-05-04T23:44:16.668Z,2.20
2023-05-04T23:46:43.668Z,2.60
2023-05-04T23:49:10.387Z,2.60
2023-05-04T23:51:37.130Z,2.90
2023-05-04T23:54:03.884Z,2.50
2023-05-04T23:56:31.324Z,2.50
2023-05-04T23:58:58.049Z,2.60
